Aviation Digital Data Service (ADDS)

Output produced by METARs form (0647 UTC 23 May 2017)
found at http://aviationweather.gov/adds/metars/
 
KGON 230617Z 2306/2406 36006KT 3SM BR BKN007 
     FM231000 36008KT P6SM SCT015 SCT250 
     FM231200 01009KT P6SM BKN250 
     FM231800 21007KT P6SM BKN150 
     FM240300 VRB03KT P6SM BKN120